createdAt,value
2023-05-20T00:01:53.727Z,99929.69
2023-05-20T00:04:20.886Z,99929.91
2023-05-20T00:06:47.825Z,99923.44
2023-05-20T00:09:14.683Z,99926.97
2023-05-20T00:11:41.444Z,99927.59
2023-05-20T00:14:08.211Z,99928.47
2023-05-20T00:16:35.330Z,99921.13
2023-05-20T00:19:02.242Z,99926.97
2023-05-20T00:21:29.941Z,99930.72
2023-05-20T00:23:56.746Z,99916.75
2023-05-20T00:26:23.622Z,99920.03
2023-05-20T00:28:50.378Z,99916.28
2023-05-20T00:31:17.214Z,99920.03
2023-05-20T00:33:44.139Z,99907.09
2023-05-20T00:36:10.903Z,99910.03
2023-05-20T00:38:37.691Z,99901.56
2023-05-20T00:41:04.548Z,99907.19
2023-05-20T00:43:31.337Z,99898.38
2023-05-20T00:45:58.220Z,99906.75
2023-05-20T00:48:25.120Z,99901.34
2023-05-20T00:50:52.190Z,99901.09
2023-05-20T00:53:19.127Z,99892.13
2023-05-20T00:55:46.041Z,99888.03
2023-05-20T00:58:13.260Z,99892.97
2023-05-20T01:00:40.605Z,99884.84
2023-05-20T01:03:07.558Z,99882.59
2023-05-20T01:05:34.614Z,99889.91
2023-05-20T01:08:01.695Z,99881.56
2023-05-20T01:10:30.451Z,99887.91
2023-05-20T01:13:01.408Z,99888.16
2023-05-20T01:15:29.722Z,99881.69
2023-05-20T01:18:02.048Z,99885.81
2023-05-20T01:20:32.776Z,99881.59
2023-05-20T01:22:59.893Z,99887.84
2023-05-20T01:25:27.011Z,99878.44
2023-05-20T01:27:56.085Z,99873.72
2023-05-20T01:30:24.230Z,99873.25
2023-05-20T01:32:55.507Z,99874.09
2023-05-20T01:35:23.393Z,99878.22
2023-05-20T01:37:52.779Z,99867.00
2023-05-20T01:40:20.027Z,99868.00
2023-05-20T01:42:53.369Z,99871.16
2023-05-20T01:45:20.793Z,99873.84
2023-05-20T01:47:48.044Z,99871.59
2023-05-20T01:50:14.852Z,99873.84
2023-05-20T01:52:41.617Z,99871.16
2023-05-20T01:55:09.003Z,99879.44
2023-05-20T01:57:36.131Z,99880.34
2023-05-20T02:00:03.301Z,99869.72
2023-05-20T02:02:30.271Z,99871.16
2023-05-20T02:04:57.133Z,99872.81
2023-05-20T02:07:24.008Z,99864.09
2023-05-20T02:09:50.948Z,99863.47
2023-05-20T02:12:17.829Z,99864.53
2023-05-20T02:14:47.113Z,99866.19
2023-05-20T02:17:16.796Z,99866.19
2023-05-20T02:19:44.781Z,99867.84
2023-05-20T02:22:11.829Z,99866.19
2023-05-20T02:24:38.647Z,99862.88
2023-05-20T02:27:06.509Z,99868.22
2023-05-20T02:29:33.382Z,99858.50
2023-05-20T02:32:00.160Z,99854.16
2023-05-20T02:34:28.039Z,99851.66
2023-05-20T02:36:54.999Z,99846.47
2023-05-20T02:39:21.764Z,99850.38
2023-05-20T02:41:48.756Z,99849.94
2023-05-20T02:44:15.739Z,99852.94
2023-05-20T02:46:42.633Z,99843.78
2023-05-20T02:49:09.438Z,99841.91
2023-05-20T02:51:37.199Z,99845.53
2023-05-20T02:54:04.141Z,99849.41
2023-05-20T02:56:32.798Z,99844.81
2023-05-20T02:59:00.441Z,99843.16
2023-05-20T03:01:27.327Z,99841.50
2023-05-20T03:03:54.259Z,99837.97
2023-05-20T03:06:21.131Z,99840.94
2023-05-20T03:08:48.148Z,99844.09
2023-05-20T03:11:14.971Z,99848.00
2023-05-20T03:13:41.747Z,99840.94
2023-05-20T03:16:08.611Z,99846.34
2023-05-20T03:18:35.952Z,99842.13
2023-05-20T03:21:02.973Z,99836.94
2023-05-20T03:23:29.857Z,99844.56
2023-05-20T03:25:56.737Z,99845.75
2023-05-20T03:28:23.492Z,99847.03
2023-05-20T03:30:50.280Z,99845.16
2023-05-20T03:33:17.146Z,99852.22
2023-05-20T03:35:43.927Z,99848.91
2023-05-20T03:38:10.777Z,99852.22
2023-05-20T03:40:37.604Z,99857.25
2023-05-20T03:43:04.400Z,99858.09
2023-05-20T03:45:31.210Z,99864.94
2023-05-20T03:47:58.144Z,99854.34
2023-05-20T03:50:24.981Z,99862.28
2023-05-20T03:52:51.885Z,99863.56
2023-05-20T03:55:20.769Z,99860.78
2023-05-20T03:57:47.555Z,99860.19
2023-05-20T04:00:14.913Z,99855.97
2023-05-20T04:02:41.959Z,99853.94
2023-05-20T04:05:10.394Z,99861.84
2023-05-20T04:07:37.338Z,99863.50
2023-05-20T04:10:05.026Z,99858.53
2023-05-20T04:12:32.743Z,99858.91
2023-05-20T04:15:03.223Z,99855.16
2023-05-20T04:17:31.008Z,99862.44
2023-05-20T04:20:00.124Z,99868.84
2023-05-20T04:22:27.706Z,99870.13
2023-05-20T04:24:55.149Z,99859.91
2023-05-20T04:27:21.937Z,99862.13
2023-05-20T04:29:48.960Z,99859.63
2023-05-20T04:32:21.746Z,99859.63
2023-05-20T04:34:49.011Z,99857.91
2023-05-20T04:37:16.616Z,99858.84
2023-05-20T04:39:44.202Z,99856.13
2023-05-20T04:42:11.038Z,99851.66
2023-05-20T04:44:42.442Z,99859.13
2023-05-20T04:47:09.356Z,99856.25
2023-05-20T04:49:36.206Z,99856.41
2023-05-20T04:52:02.983Z,99852.41
2023-05-20T04:54:30.260Z,99853.19
2023-05-20T04:56:57.378Z,99855.34
2023-05-20T04:59:24.268Z,99853.91
2023-05-20T05:01:51.586Z,99853.78
2023-05-20T05:04:18.593Z,99854.75
2023-05-20T05:06:45.452Z,99854.38
2023-05-20T05:09:14.040Z,99849.00
2023-05-20T05:11:40.813Z,99855.47
2023-05-20T05:14:08.190Z,99855.47
2023-05-20T05:16:35.168Z,99851.69
2023-05-20T05:19:02.106Z,99840.69
2023-05-20T05:21:28.929Z,99843.69
2023-05-20T05:23:58.069Z,99843.34
2023-05-20T05:26:26.764Z,99837.44
2023-05-20T05:28:55.367Z,99841.53
2023-05-20T05:31:22.328Z,99835.28
2023-05-20T05:33:49.275Z,99829.84
2023-05-20T05:36:16.910Z,99824.44
2023-05-20T05:38:45.016Z,99822.78
2023-05-20T05:41:11.965Z,99827.16
2023-05-20T05:43:38.779Z,99831.28
2023-05-20T05:46:05.690Z,99827.00
2023-05-20T05:48:32.674Z,99817.22
2023-05-20T05:50:59.557Z,99820.34
2023-05-20T05:53:26.367Z,99811.97
2023-05-20T05:55:53.129Z,99818.81
2023-05-20T05:58:20.129Z,99821.16
2023-05-20T06:00:46.992Z,99822.00
2023-05-20T06:03:13.838Z,99808.66
2023-05-20T06:05:40.877Z,99802.41
2023-05-20T06:08:07.742Z,99806.13
2023-05-20T06:10:34.640Z,99803.28
2023-05-20T06:13:01.545Z,99803.41
2023-05-20T06:15:28.453Z,99807.13
2023-05-20T06:17:55.497Z,99805.53
2023-05-20T06:20:22.405Z,99790.28
2023-05-20T06:22:49.202Z,99803.53
2023-05-20T06:25:16.151Z,99807.53
2023-05-20T06:27:43.036Z,99805.91
2023-05-20T06:30:10.140Z,99806.06
2023-05-20T06:32:36.942Z,99812.91
2023-05-20T06:35:04.000Z,99821.19
2023-05-20T06:37:30.806Z,99800.63
2023-05-20T06:39:57.645Z,99806.41
2023-05-20T06:42:24.507Z,99806.75
2023-05-20T06:44:51.270Z,99810.88
2023-05-20T06:47:18.424Z,99809.63
2023-05-20T06:49:47.549Z,99810.50
2023-05-20T06:52:15.154Z,99810.50
2023-05-20T06:54:42.224Z,99809.78
2023-05-20T06:57:09.494Z,99804.91
2023-05-20T06:59:37.382Z,99800.38
2023-05-20T07:02:04.827Z,99800.19
2023-05-20T07:04:31.730Z,99794.66
2023-05-20T07:06:58.571Z,99799.84
2023-05-20T07:09:25.668Z,99785.91
2023-05-20T07:11:52.607Z,99785.19
2023-05-20T07:14:19.842Z,99771.66
2023-05-20T07:16:46.891Z,99777.13
2023-05-20T07:19:15.361Z,99778.44
2023-05-20T07:21:42.225Z,99768.63
2023-05-20T07:24:09.122Z,99777.03
2023-05-20T07:26:36.856Z,99772.09
2023-05-20T07:29:06.756Z,99759.69
2023-05-20T07:31:33.884Z,99762.03
2023-05-20T07:34:00.675Z,99765.88
2023-05-20T07:36:28.495Z,99760.53
2023-05-20T07:39:03.268Z,99757.56
2023-05-20T07:41:32.261Z,99742.13
2023-05-20T07:43:59.117Z,99742.69
2023-05-20T07:46:26.007Z,99740.44
2023-05-20T07:48:53.139Z,99730.22
2023-05-20T07:51:20.141Z,99735.00
2023-05-20T07:53:47.397Z,99739.31
2023-05-20T07:56:14.228Z,99737.13
2023-05-20T07:58:43.779Z,99738.91
2023-05-20T08:01:10.647Z,99749.88
2023-05-20T08:03:37.570Z,99744.28
2023-05-20T08:06:04.665Z,99735.03
2023-05-20T08:08:31.465Z,99745.81
2023-05-20T08:10:58.437Z,99739.59
2023-05-20T08:13:25.365Z,99738.78
2023-05-20T08:15:56.108Z,99737.53
2023-05-20T08:18:23.554Z,99732.13
2023-05-20T08:20:50.351Z,99735.13
2023-05-20T08:23:17.350Z,99744.16
2023-05-20T08:25:47.002Z,99737.22
2023-05-20T08:28:13.999Z,99732.56
2023-05-20T08:30:41.748Z,99745.75
2023-05-20T08:33:08.927Z,99729.50
2023-05-20T08:35:36.558Z,99740.66
2023-05-20T08:38:03.461Z,99729.66
2023-05-20T08:40:30.276Z,99730.44
2023-05-20T08:42:59.228Z,99723.34
2023-05-20T08:45:28.894Z,99724.09
2023-05-20T08:47:56.059Z,99735.75
2023-05-20T08:50:22.939Z,99725.69
2023-05-20T08:52:49.846Z,99726.81
2023-05-20T08:55:27.106Z,99723.28
2023-05-20T08:57:55.204Z,99719.38
2023-05-20T09:00:29.143Z,99715.63
2023-05-20T09:02:58.720Z,99710.22
2023-05-20T09:05:27.770Z,99706.31
2023-05-20T09:08:05.607Z,99707.69
2023-05-20T09:10:33.651Z,99702.53
2023-05-20T09:13:05.081Z,99695.41
2023-05-20T09:15:33.516Z,99712.09
2023-05-20T09:18:05.153Z,99709.63
2023-05-20T09:20:35.282Z,99701.41
2023-05-20T09:23:03.304Z,99700.31
2023-05-20T09:25:30.365Z,99693.97
2023-05-20T09:27:57.507Z,99688.94
2023-05-20T09:30:25.117Z,99694.56
2023-05-20T09:32:56.749Z,99684.00
2023-05-20T09:35:24.888Z,99679.22
2023-05-20T09:37:56.727Z,99697.88
2023-05-20T09:40:28.561Z,99703.47
2023-05-20T09:43:07.644Z,99703.19
2023-05-20T09:45:35.248Z,99711.13
2023-05-20T09:48:03.190Z,99710.03
2023-05-20T09:50:31.890Z,99710.13
2023-05-20T09:53:03.977Z,99707.31
2023-05-20T09:55:32.173Z,99701.44
2023-05-20T09:58:02.735Z,99697.59
2023-05-20T10:00:30.026Z,99699.91
2023-05-20T10:02:58.031Z,99692.72
2023-05-20T10:05:27.605Z,99684.28
2023-05-20T10:08:09.982Z,99672.72
2023-05-20T10:11:12.959Z,99670.59
2023-05-20T10:14:10.241Z,99672.38
2023-05-20T10:16:54.535Z,99676.44
2023-05-20T10:19:32.618Z,99663.44
2023-05-20T10:22:05.371Z,99665.97
2023-05-20T10:24:38.312Z,99668.81
2023-05-20T10:27:09.183Z,99651.53
2023-05-20T10:29:52.809Z,99648.66
2023-05-20T10:32:31.545Z,99638.94
2023-05-20T10:35:05.534Z,99648.78
2023-05-20T10:37:46.281Z,99632.59
2023-05-20T10:40:18.727Z,99655.53
2023-05-20T10:42:46.357Z,99644.75
2023-05-20T10:45:13.233Z,99639.16
2023-05-20T10:47:56.363Z,99628.44
2023-05-20T10:50:40.648Z,99629.81
2023-05-20T10:53:18.530Z,99627.16
2023-05-20T10:55:54.998Z,99628.00
2023-05-20T10:58:23.932Z,99625.03
2023-05-20T11:00:57.119Z,99623.44
2023-05-20T11:03:25.617Z,99635.09
2023-05-20T11:05:52.667Z,99619.19
2023-05-20T11:08:27.700Z,99615.31
2023-05-20T11:10:58.094Z,99606.81
2023-05-20T11:13:26.025Z,99603.84
2023-05-20T11:15:53.360Z,99601.34
2023-05-20T11:18:20.226Z,99609.66
2023-05-20T11:20:47.540Z,99606.63
2023-05-20T11:23:15.731Z,99608.03
2023-05-20T11:25:42.880Z,99601.63
2023-05-20T11:28:14.637Z,99603.75
2023-05-20T11:30:43.298Z,99586.22
2023-05-20T11:33:13.809Z,99584.09
2023-05-20T11:35:51.064Z,99588.09
2023-05-20T11:38:18.926Z,99590.34
2023-05-20T11:40:50.923Z,99575.72
2023-05-20T11:43:18.665Z,99567.78
2023-05-20T11:45:47.393Z,99585.53
2023-05-20T11:48:15.984Z,99569.09
2023-05-20T11:50:44.909Z,99575.00
2023-05-20T11:53:15.707Z,99576.66
2023-05-20T11:55:50.674Z,99567.78
2023-05-20T11:58:19.581Z,99576.22
2023-05-20T12:00:51.731Z,99576.66
2023-05-20T12:03:23.937Z,99567.22
2023-05-20T12:05:53.983Z,99578.34
2023-05-20T12:08:20.911Z,99570.44
2023-05-20T12:10:47.833Z,99561.78
2023-05-20T12:13:14.754Z,99564.69
2023-05-20T12:15:41.599Z,99557.34
2023-05-20T12:18:08.899Z,99556.34
2023-05-20T12:20:37.408Z,99556.69
2023-05-20T12:23:05.100Z,99550.75
2023-05-20T12:25:31.985Z,99554.19
2023-05-20T12:27:59.424Z,99550.31
2023-05-20T12:30:26.324Z,99550.63
2023-05-20T12:32:53.388Z,99545.72
2023-05-20T12:35:41.557Z,99541.97
2023-05-20T12:38:08.998Z,99541.34
2023-05-20T12:40:38.074Z,99542.13
2023-05-20T12:43:05.793Z,99544.22
2023-05-20T12:45:33.636Z,99537.19
2023-05-20T12:48:00.957Z,99540.25
2023-05-20T12:50:28.440Z,99532.09
2023-05-20T12:52:55.506Z,99534.38
2023-05-20T12:55:22.580Z,99532.66
2023-05-20T12:57:50.376Z,99539.81
2023-05-20T13:00:18.042Z,99539.09
2023-05-20T13:02:44.999Z,99536.41
2023-05-20T13:05:11.928Z,99529.81
2023-05-20T13:07:39.034Z,99526.66
2023-05-20T13:10:07.364Z,99536.06
2023-05-20T13:12:35.066Z,99537.06
2023-05-20T13:15:01.980Z,99527.94
2023-05-20T13:17:28.891Z,99521.31
2023-05-20T13:19:55.926Z,99524.66
2023-05-20T13:22:23.303Z,99522.50
2023-05-20T13:24:50.238Z,99517.28
2023-05-20T13:27:16.994Z,99512.44
2023-05-20T13:29:43.899Z,99507.00
2023-05-20T13:32:10.922Z,99505.75
2023-05-20T13:34:38.968Z,99508.56
2023-05-20T13:37:06.362Z,99505.25
2023-05-20T13:39:33.396Z,99512.63
2023-05-20T13:42:00.397Z,99504.28
2023-05-20T13:44:27.172Z,99505.50
2023-05-20T13:46:54.118Z,99506.44
2023-05-20T13:49:21.607Z,99502.59
2023-05-20T13:51:48.450Z,99492.00
2023-05-20T13:54:15.551Z,99492.59
2023-05-20T13:56:42.791Z,99494.97
2023-05-20T13:59:09.615Z,99486.31
2023-05-20T14:01:37.877Z,99486.31
2023-05-20T14:04:06.707Z,99482.19
2023-05-20T14:06:33.552Z,99484.69
2023-05-20T14:09:00.608Z,99494.19
2023-05-20T14:11:27.490Z,99485.44
2023-05-20T14:13:54.392Z,99484.44
2023-05-20T14:16:21.467Z,99485.09
2023-05-20T14:18:48.399Z,99472.63
2023-05-20T14:21:15.225Z,99469.78
2023-05-20T14:23:44.683Z,99453.31
2023-05-20T14:26:11.710Z,99464.00
2023-05-20T14:28:38.604Z,99459.59
2023-05-20T14:31:08.233Z,99461.13
2023-05-20T14:33:36.438Z,99458.84
2023-05-20T14:36:03.542Z,99454.00
2023-05-20T14:38:30.401Z,99450.84
2023-05-20T14:40:57.141Z,99446.03
2023-05-20T14:43:23.955Z,99445.97
2023-05-20T14:45:50.789Z,99445.84
2023-05-20T14:48:17.785Z,99454.13
2023-05-20T14:50:44.644Z,99440.63
2023-05-20T14:53:11.404Z,99437.81
2023-05-20T14:55:38.221Z,99433.88
2023-05-20T14:58:05.016Z,99436.69
2023-05-20T15:00:33.069Z,99424.72
2023-05-20T15:03:00.271Z,99429.38
2023-05-20T15:05:27.224Z,99433.09
2023-05-20T15:07:54.110Z,99429.88
2023-05-20T15:10:21.311Z,99430.97
2023-05-20T15:12:48.336Z,99416.44
2023-05-20T15:15:15.388Z,99435.56
2023-05-20T15:17:42.216Z,99421.28
2023-05-20T15:20:09.966Z,99423.34
2023-05-20T15:22:37.157Z,99419.97
2023-05-20T15:25:04.190Z,99410.28
2023-05-20T15:27:31.181Z,99409.59
2023-05-20T15:29:57.952Z,99415.16
2023-05-20T15:32:25.053Z,99413.66
2023-05-20T15:34:51.940Z,99417.81
2023-05-20T15:37:18.829Z,99411.13
2023-05-20T15:39:45.613Z,99423.72
2023-05-20T15:42:18.546Z,99409.59
2023-05-20T15:44:46.108Z,99416.03
2023-05-20T15:47:13.390Z,99418.09
2023-05-20T15:49:40.229Z,99407.81
2023-05-20T15:52:07.282Z,99399.47
2023-05-20T15:54:34.359Z,99408.94
2023-05-20T15:57:02.832Z,99404.84
2023-05-20T15:59:29.694Z,99407.91
2023-05-20T16:01:56.537Z,99405.34
2023-05-20T16:04:23.526Z,99396.81
2023-05-20T16:06:51.023Z,99401.00
2023-05-20T16:09:18.094Z,99396.22
2023-05-20T16:11:44.884Z,99402.88
2023-05-20T16:14:11.744Z,99395.53
2023-05-20T16:16:38.645Z,99406.13
2023-05-20T16:19:05.799Z,99403.56
2023-05-20T16:21:32.649Z,99400.22
2023-05-20T16:23:59.444Z,99412.91
2023-05-20T16:26:26.683Z,99406.00
2023-05-20T16:28:53.516Z,99410.59
2023-05-20T16:31:20.370Z,99406.44
2023-05-20T16:33:47.435Z,99412.34
2023-05-20T16:36:14.230Z,99415.59
2023-05-20T16:38:41.074Z,99411.06
2023-05-20T16:41:07.909Z,99418.84
2023-05-20T16:43:34.709Z,99423.44
2023-05-20T16:46:01.861Z,99423.88
2023-05-20T16:48:28.744Z,99421.72
2023-05-20T16:50:55.914Z,99420.78
2023-05-20T16:53:22.698Z,99423.22
2023-05-20T16:55:49.470Z,99416.41
2023-05-20T16:58:16.464Z,99427.63
2023-05-20T17:00:43.306Z,99433.13
2023-05-20T17:03:10.201Z,99432.94
2023-05-20T17:05:37.127Z,99427.81
2023-05-20T17:08:04.045Z,99437.91
2023-05-20T17:10:30.864Z,99442.94
2023-05-20T17:12:57.776Z,99439.56
2023-05-20T17:15:25.736Z,99437.91
2023-05-20T17:17:52.659Z,99433.97
2023-05-20T17:20:19.810Z,99433.34
2023-05-20T17:22:46.790Z,99433.91
2023-05-20T17:25:13.636Z,99439.81
2023-05-20T17:27:40.435Z,99436.53
2023-05-20T17:30:07.939Z,99444.88
2023-05-20T17:32:34.856Z,99434.63
2023-05-20T17:35:02.294Z,99438.84
2023-05-20T17:37:29.095Z,99439.06
2023-05-20T17:39:55.927Z,99434.75
2023-05-20T17:42:22.943Z,99440.22
2023-05-20T17:44:49.900Z,99431.88
2023-05-20T17:47:16.800Z,99437.00
2023-05-20T17:49:43.833Z,99432.75
2023-05-20T17:52:10.802Z,99434.47
2023-05-20T17:54:37.695Z,99438.31
2023-05-20T17:57:04.667Z,99428.94
2023-05-20T17:59:34.049Z,99433.56
2023-05-20T18:02:01.474Z,99443.44
2023-05-20T18:04:28.689Z,99442.63
2023-05-20T18:06:55.952Z,99446.25
2023-05-20T18:09:22.878Z,99447.81
2023-05-20T18:11:49.708Z,99465.53
2023-05-20T18:14:18.940Z,99459.00
2023-05-20T18:16:45.828Z,99451.88
2023-05-20T18:19:12.622Z,99456.53
2023-05-20T18:21:39.439Z,99460.66
2023-05-20T18:24:06.706Z,99467.84
2023-05-20T18:26:33.805Z,99461.84
2023-05-20T18:29:01.008Z,99462.19
2023-05-20T18:31:27.792Z,99464.91
2023-05-20T18:33:54.621Z,99459.72
2023-05-20T18:36:21.570Z,99469.56
2023-05-20T18:38:48.500Z,99468.50
2023-05-20T18:41:15.395Z,99473.97
2023-05-20T18:43:42.234Z,99474.50
2023-05-20T18:46:09.060Z,99463.84
2023-05-20T18:48:36.139Z,99467.97
2023-05-20T18:51:03.082Z,99469.31
2023-05-20T18:53:29.909Z,99472.88
2023-05-20T18:56:01.618Z,99471.75
2023-05-20T18:58:28.938Z,99482.69
2023-05-20T19:00:56.587Z,99466.31
2023-05-20T19:03:25.427Z,99472.28
2023-05-20T19:05:52.459Z,99475.56
2023-05-20T19:08:19.315Z,99471.19
2023-05-20T19:10:46.129Z,99472.28
2023-05-20T19:13:13.159Z,99477.16
2023-05-20T19:15:40.040Z,99474.16
2023-05-20T19:18:06.927Z,99472.22
2023-05-20T19:20:34.746Z,99477.94
2023-05-20T19:23:01.686Z,99477.09
2023-05-20T19:25:28.531Z,99478.97
2023-05-20T19:27:55.441Z,99474.84
2023-05-20T19:30:22.322Z,99479.75
2023-05-20T19:32:49.261Z,99488.47
2023-05-20T19:35:18.337Z,99490.63
2023-05-20T19:37:45.713Z,99488.97
2023-05-20T19:40:13.224Z,99492.78
2023-05-20T19:42:40.038Z,99500.97
2023-05-20T19:45:07.517Z,99494.91
2023-05-20T19:47:34.607Z,99493.78
2023-05-20T19:50:01.754Z,99497.88
2023-05-20T19:52:28.610Z,99498.69
2023-05-20T19:54:55.385Z,99509.56
2023-05-20T19:57:22.196Z,99502.19
2023-05-20T19:59:50.136Z,99496.69
2023-05-20T20:02:17.878Z,99495.34
2023-05-20T20:04:44.891Z,99494.19
2023-05-20T20:07:12.258Z,99499.66
2023-05-20T20:09:39.057Z,99492.00
2023-05-20T20:12:06.816Z,99495.78
2023-05-20T20:14:33.631Z,99484.63
2023-05-20T20:17:00.624Z,99483.78
2023-05-20T20:19:28.956Z,99482.66
2023-05-20T20:21:59.084Z,99485.97
2023-05-20T20:24:26.718Z,99484.28
2023-05-20T20:26:57.128Z,99484.56
2023-05-20T20:29:24.075Z,99486.78
2023-05-20T20:31:50.957Z,99485.84
2023-05-20T20:34:18.156Z,99489.66
2023-05-20T20:36:48.099Z,99489.59
2023-05-20T20:39:19.304Z,99497.72
2023-05-20T20:41:47.680Z,99493.38
2023-05-20T20:44:18.901Z,99497.69
2023-05-20T20:46:46.270Z,99502.34
2023-05-20T20:49:13.194Z,99492.53
2023-05-20T20:51:40.460Z,99502.81
2023-05-20T20:54:08.293Z,99495.97
2023-05-20T20:56:37.317Z,99498.44
2023-05-20T20:59:05.923Z,99497.56
2023-05-20T21:01:36.619Z,99490.78
2023-05-20T21:04:05.083Z,99494.56
2023-05-20T21:06:32.192Z,99490.44
2023-05-20T21:09:02.226Z,99492.06
2023-05-20T21:11:29.179Z,99495.59
2023-05-20T21:13:56.293Z,99491.25
2023-05-20T21:16:23.488Z,99488.22
2023-05-20T21:18:50.463Z,99488.97
2023-05-20T21:21:20.706Z,99483.34
2023-05-20T21:23:49.348Z,99483.78
2023-05-20T21:26:16.499Z,99487.38
2023-05-20T21:28:43.381Z,99483.78
2023-05-20T21:31:10.255Z,99479.19
2023-05-20T21:33:37.268Z,99480.00
2023-05-20T21:36:04.701Z,99476.72
2023-05-20T21:38:31.662Z,99481.59
2023-05-20T21:40:58.891Z,99470.13
2023-05-20T21:43:25.745Z,99465.19
2023-05-20T21:45:52.673Z,99467.09
2023-05-20T21:48:19.497Z,99466.22
2023-05-20T21:50:46.387Z,99472.81
2023-05-20T21:53:13.280Z,99465.72
2023-05-20T21:55:40.114Z,99465.41
2023-05-20T21:58:07.052Z,99464.81
2023-05-20T22:00:33.918Z,99455.25
2023-05-20T22:03:00.914Z,99462.03
2023-05-20T22:05:27.712Z,99465.72
2023-05-20T22:07:54.815Z,99452.59
2023-05-20T22:10:23.389Z,99460.09
2023-05-20T22:12:51.069Z,99450.84
2023-05-20T22:15:18.019Z,99448.63
2023-05-20T22:17:44.988Z,99446.38
2023-05-20T22:20:12.492Z,99444.19
2023-05-20T22:22:39.607Z,99437.00
2023-05-20T22:25:07.556Z,99437.53
2023-05-20T22:27:35.225Z,99440.31
2023-05-20T22:30:02.644Z,99438.09
2023-05-20T22:32:29.426Z,99437.53
2023-05-20T22:34:58.546Z,99433.47
2023-05-20T22:37:29.061Z,99437.22
2023-05-20T22:39:56.356Z,99429.81
2023-05-20T22:42:23.190Z,99432.34
2023-05-20T22:44:50.169Z,99428.47
2023-05-20T22:47:17.045Z,99423.81
2023-05-20T22:49:43.844Z,99422.31
2023-05-20T22:52:10.830Z,99421.34
2023-05-20T22:54:37.675Z,99418.59
2023-05-20T22:57:05.621Z,99419.91
2023-05-20T22:59:32.979Z,99415.59
2023-05-20T23:01:59.978Z,99414.16
2023-05-20T23:04:26.804Z,99416.56
2023-05-20T23:06:53.977Z,99409.50
2023-05-20T23:09:21.434Z,99407.34
2023-05-20T23:11:48.192Z,99408.50
2023-05-20T23:14:15.101Z,99400.50
2023-05-20T23:16:42.364Z,99415.00
2023-05-20T23:19:09.356Z,99407.72
2023-05-20T23:21:37.633Z,99403.56
2023-05-20T23:24:04.981Z,99405.63
2023-05-20T23:26:34.647Z,99404.50
2023-05-20T23:29:01.772Z,99396.84
2023-05-20T23:31:30.204Z,99404.50
2023-05-20T23:33:59.905Z,99393.69
2023-05-20T23:36:29.239Z,99393.94
2023-05-20T23:38:56.869Z,99393.19
2023-05-20T23:41:23.874Z,99390.66
2023-05-20T23:43:50.691Z,99397.09
2023-05-20T23:46:18.773Z,99389.19
2023-05-20T23:48:48.471Z,99394.13
2023-05-20T23:51:16.529Z,99384.81
2023-05-20T23:53:44.254Z,99389.41
2023-05-20T23:56:11.592Z,99392.38
2023-05-20T23:58:38.694Z,99377.72
